Time;durP1;ratioP1;P1;durP2;ratioP2;P2;SDS_P1;SDS_P2;PMS_P1;PMS_P2;Temp;Humidity;BMP_temperature;BMP_pressure;BME280_temperature;BME280_humidity;BME280_pressure;Samples;Min_cycle;Max_cycle;Signal;HPM_P1;HPM_P2
2021/06/22 00:02:17;;;;;;;7.50;3.88;;;;;;;;;;5073474;28;20020;-62
2021/06/22 00:04:43;;;;;;;6.75;3.83;;;;;;;;;;5073055;28;20039;-67
2021/06/22 00:07:08;;;;;;;5.57;4.07;;;;;;;;;;5073600;28;20055;-68
2021/06/22 00:09:34;;;;;;;5.45;3.88;;;;;;;;;;5073662;28;20052;-64
2021/06/22 00:11:59;;;;;;;4.43;3.60;;;;;;;;;;5073485;28;20035;-65
2021/06/22 00:14:25;;;;;;;5.25;3.50;;;;;;;;;;5073574;28;20565;-68
2021/06/22 00:16:50;;;;;;;5.85;3.75;;;;;;;;;;5073688;28;20081;-67
2021/06/22 00:19:16;;;;;;;5.63;3.35;;;;;;;;;;5073686;28;20078;-64
2021/06/22 00:21:41;;;;;;;5.25;4.03;;;;;;;;;;5072516;28;20020;-64
2021/06/22 00:24:07;;;;;;;6.10;3.65;;;;;;;;;;5073460;28;20032;-63
2021/06/22 00:26:32;;;;;;;6.50;4.05;;;;;;;;;;5073325;28;20016;-67
2021/06/22 00:28:58;;;;;;;4.45;3.65;;;;;;;;;;5073603;28;20120;-67
2021/06/22 00:31:23;;;;;;;9.32;3.80;;;;;;;;;;5073603;28;20374;-67
2021/06/22 00:33:49;;;;;;;8.05;3.88;;;;;;;;;;5073291;28;20031;-63
2021/06/22 00:36:14;;;;;;;8.98;3.88;;;;;;;;;;5073419;28;20012;-67
2021/06/22 00:38:40;;;;;;;5.15;4.00;;;;;;;;;;5073391;28;20125;-68
2021/06/22 00:41:06;;;;;;;8.25;3.97;;;;;;;;;;5073297;28;20024;-67
2021/06/22 00:43:31;;;;;;;5.65;3.60;;;;;;;;;;5073274;28;20030;-63
2021/06/22 00:45:57;;;;;;;7.68;4.28;;;;;;;;;;5071919;28;20116;-67
2021/06/22 00:48:23;;;;;;;8.95;4.30;;;;;;;;;;5071905;28;20040;-63
2021/06/22 00:50:48;;;;;;;5.43;3.85;;;;;;;;;;5071675;28;20024;-63
2021/06/22 00:53:15;;;;;;;9.68;4.30;;;;;;;;;;5071934;28;20020;-63
2021/06/22 00:55:41;;;;;;;6.03;4.00;;;;;;;;;;5072155;28;20044;-67
2021/06/22 00:58:07;;;;;;;5.68;3.83;;;;;;;;;;5073418;28;20032;-67
2021/06/22 01:00:34;;;;;;;7.38;4.15;;;;;;;;;;5072092;28;20446;-67
2021/06/22 01:03:01;;;;;;;6.03;3.65;;;;;;;;;;5071697;28;20035;-67
2021/06/22 01:05:34;;;;;;;6.57;4.05;;;;;;;;;;5072566;28;20052;-63
2021/06/22 01:08:02;;;;;;;5.03;3.45;;;;;;;;;;5075868;28;20028;-67
2021/06/22 01:10:29;;;;;;;5.90;4.55;;;;;;;;;;5076736;28;20028;-66
2021/06/22 01:12:57;;;;;;;7.57;3.78;;;;;;;;;;5075704;28;20425;-62
2021/06/22 01:15:26;;;;;;;5.55;3.70;;;;;;;;;;5075869;28;20112;-62
2021/06/22 01:17:56;;;;;;;6.32;4.00;;;;;;;;;;5076796;28;20029;-66
2021/06/22 01:20:23;;;;;;;5.30;3.73;;;;;;;;;;5075116;28;20025;-66
2021/06/22 01:22:49;;;;;;;8.25;3.95;;;;;;;;;;5075600;28;20098;-67
2021/06/22 01:25:15;;;;;;;7.10;4.32;;;;;;;;;;5075368;28;20202;-66
2021/06/22 01:27:40;;;;;;;7.28;4.53;;;;;;;;;;5075256;28;20111;-62
2021/06/22 01:30:06;;;;;;;6.65;4.75;;;;;;;;;;5075288;28;20564;-66
2021/06/22 01:32:42;;;;;;;8.48;4.97;;;;;;;;;;5075285;28;20078;-67
2021/06/22 01:35:08;;;;;;;5.32;4.60;;;;;;;;;;5076486;28;20032;-62
2021/06/22 01:37:35;;;;;;;6.22;5.20;;;;;;;;;;5058744;28;20052;-67
2021/06/22 01:40:03;;;;;;;5.72;4.55;;;;;;;;;;5076215;28;20060;-62
2021/06/22 01:42:28;;;;;;;9.13;4.75;;;;;;;;;;5075028;28;20099;-62
2021/06/22 01:44:56;;;;;;;5.85;4.07;;;;;;;;;;5074951;28;20032;-63
2021/06/22 01:47:23;;;;;;;4.05;3.80;;;;;;;;;;5074729;28;20028;-63
2021/06/22 01:49:56;;;;;;;6.15;4.30;;;;;;;;;;5076141;28;20124;-63
2021/06/22 01:52:22;;;;;;;4.25;3.85;;;;;;;;;;5075111;28;20055;-63
2021/06/22 01:54:47;;;;;;;5.10;4.13;;;;;;;;;;5058318;28;20019;-63
2021/06/22 01:57:14;;;;;;;6.82;3.80;;;;;;;;;;5076368;28;20103;-63
2021/06/22 01:59:48;;;;;;;5.10;3.53;;;;;;;;;;5074915;28;20013;-66
2021/06/22 02:02:18;;;;;;;5.45;4.05;;;;;;;;;;5074791;28;20032;-62
2021/06/22 02:04:59;;;;;;;;;;;;;;;;;;5074812;28;20033;-66
2021/06/22 02:07:24;;;;;;;7.68;4.60;;;;;;;;;;5076079;28;19908;-66
2021/06/22 02:10:16;;;;;;;4.88;3.95;;;;;;;;;;5073694;28;20071;-66
2021/06/22 02:12:59;;;;;;;6.55;3.95;;;;;;;;;;5076154;28;20071;-66
2021/06/22 02:15:26;;;;;;;5.47;3.85;;;;;;;;;;5073955;28;20041;-66
2021/06/22 02:17:52;;;;;;;5.60;4.53;;;;;;;;;;5073745;28;20104;-66
2021/06/22 02:20:18;;;;;;;6.20;4.28;;;;;;;;;;5074290;28;20025;-63
2021/06/22 02:22:45;;;;;;;6.93;4.07;;;;;;;;;;5074227;28;20028;-63
2021/06/22 02:25:14;;;;;;;5.32;4.38;;;;;;;;;;5074322;28;20036;-63
2021/06/22 02:27:40;;;;;;;6.68;4.28;;;;;;;;;;5075231;28;20016;-63
2021/06/22 02:30:07;;;;;;;4.47;4.07;;;;;;;;;;5075285;28;20115;-65
2021/06/22 02:32:38;;;;;;;6.05;4.20;;;;;;;;;;5074362;28;20012;-66
2021/06/22 02:35:09;;;;;;;6.47;4.35;;;;;;;;;;5074247;28;20459;-63
2021/06/22 02:37:36;;;;;;;6.65;4.88;;;;;;;;;;5075301;28;20429;-68
2021/06/22 02:40:02;;;;;;;6.32;5.25;;;;;;;;;;5075183;28;20009;-67
2021/06/22 02:42:28;;;;;;;6.18;4.85;;;;;;;;;;5074227;28;20449;-63
2021/06/22 02:44:56;;;;;;;7.28;4.75;;;;;;;;;;5073909;28;20047;-63
2021/06/22 02:47:23;;;;;;;5.45;4.35;;;;;;;;;;5073822;28;20105;-68
2021/06/22 02:49:50;;;;;;;6.47;4.93;;;;;;;;;;5057301;28;20071;-63
2021/06/22 02:52:16;;;;;;;6.80;4.97;;;;;;;;;;5074022;28;20386;-68
2021/06/22 02:54:42;;;;;;;7.10;4.78;;;;;;;;;;5075007;28;20023;-67
2021/06/22 02:57:08;;;;;;;6.93;4.90;;;;;;;;;;5075049;28;20085;-67
2021/06/22 02:59:36;;;;;;;10.85;4.35;;;;;;;;;;5073650;28;20017;-63
2021/06/22 03:02:02;;;;;;;4.47;4.05;;;;;;;;;;5074759;28;20032;-63
2021/06/22 03:04:28;;;;;;;6.38;4.03;;;;;;;;;;5073003;28;20040;-63
2021/06/22 03:06:54;;;;;;;8.00;4.65;;;;;;;;;;5073324;28;20073;-63
2021/06/22 03:09:26;;;;;;;7.30;5.07;;;;;;;;;;5074451;28;20028;-63
2021/06/22 03:11:53;;;;;;;7.22;5.47;;;;;;;;;;5073387;28;20155;-63
2021/06/22 03:14:21;;;;;;;10.88;5.50;;;;;;;;;;5074493;28;20024;-63
2021/06/22 03:17:03;;;;;;;9.27;5.97;;;;;;;;;;5073142;28;20027;-63
2021/06/22 03:19:30;;;;;;;5.88;4.93;;;;;;;;;;5072991;28;20040;-63
2021/06/22 03:22:00;;;;;;;5.93;4.35;;;;;;;;;;5073036;28;20429;-67
2021/06/22 03:24:27;;;;;;;4.85;4.18;;;;;;;;;;5072937;28;20065;-67
2021/06/22 03:26:53;;;;;;;6.22;4.38;;;;;;;;;;5073058;28;20020;-67
2021/06/22 03:29:23;;;;;;;7.57;5.28;;;;;;;;;;5072999;28;20390;-67
2021/06/22 03:32:08;;;;;;;7.10;4.65;;;;;;;;;;5073814;28;20569;-67
2021/06/22 03:34:37;;;;;;;8.18;5.70;;;;;;;;;;5072880;28;20111;-68
2021/06/22 03:37:03;;;;;;;8.63;5.57;;;;;;;;;;5074174;28;20475;-67
2021/06/22 03:39:33;;;;;;;13.80;5.57;;;;;;;;;;5072817;28;20024;-67
2021/06/22 03:41:58;;;;;;;10.27;5.90;;;;;;;;;;5056227;28;20039;-67
2021/06/22 03:44:24;;;;;;;9.68;5.97;;;;;;;;;;5072779;28;20028;-67
2021/06/22 03:46:59;;;;;;;5.78;5.28;;;;;;;;;;5073901;28;20103;-68
2021/06/22 03:49:26;;;;;;;7.20;4.85;;;;;;;;;;5072761;28;20082;-68
2021/06/22 03:51:53;;;;;;;6.82;4.43;;;;;;;;;;5073830;28;20381;-68
2021/06/22 03:54:20;;;;;;;7.15;4.78;;;;;;;;;;5056287;28;20390;-67
2021/06/22 03:56:47;;;;;;;5.35;4.85;;;;;;;;;;5072851;28;20024;-67
2021/06/22 03:59:24;;;;;;;5.93;4.55;;;;;;;;;;5072608;28;20115;-63
2021/06/22 04:01:50;;;;;;;8.07;5.22;;;;;;;;;;5055763;28;20032;-63
2021/06/22 04:04:16;;;;;;;5.70;4.72;;;;;;;;;;5072931;28;20399;-63
2021/06/22 04:06:49;;;;;;;6.05;4.40;;;;;;;;;;5073420;28;20034;-63
2021/06/22 04:09:24;;;;;;;5.63;4.90;;;;;;;;;;5072427;28;20362;-67
2021/06/22 04:11:49;;;;;;;10.00;5.28;;;;;;;;;;5072263;28;20040;-68
2021/06/22 04:14:16;;;;;;;6.82;5.00;;;;;;;;;;5072168;28;20402;-68
2021/06/22 04:16:45;;;;;;;9.23;4.75;;;;;;;;;;5073623;28;20028;-68
2021/06/22 04:19:12;;;;;;;7.15;4.57;;;;;;;;;;5072342;28;20459;-67
2021/06/22 04:21:39;;;;;;;10.23;4.65;;;;;;;;;;5072470;28;20037;-67
2021/06/22 04:24:06;;;;;;;12.48;4.90;;;;;;;;;;5072364;28;20032;-67
2021/06/22 04:26:34;;;;;;;6.53;4.75;;;;;;;;;;5073496;28;20025;-67
2021/06/22 04:28:59;;;;;;;7.30;4.95;;;;;;;;;;5072516;28;20474;-67
2021/06/22 04:31:25;;;;;;;6.53;4.60;;;;;;;;;;5073286;28;20086;-66
2021/06/22 04:33:50;;;;;;;6.55;4.35;;;;;;;;;;5073233;28;20024;-67
2021/06/22 04:36:16;;;;;;;7.93;4.68;;;;;;;;;;5073051;28;20020;-66
2021/06/22 04:38:41;;;;;;;6.82;5.32;;;;;;;;;;5073449;28;20044;-66
2021/06/22 04:41:07;;;;;;;10.38;4.55;;;;;;;;;;5075476;28;20040;-67
2021/06/22 04:43:32;;;;;;;5.75;4.28;;;;;;;;;;5076474;28;20013;-66
2021/06/22 04:45:58;;;;;;;9.25;4.97;;;;;;;;;;5076411;28;20544;-66
2021/06/22 04:48:23;;;;;;;14.60;4.85;;;;;;;;;;5076489;28;20025;-66
2021/06/22 04:50:49;;;;;;;9.02;4.70;;;;;;;;;;5076532;28;20025;-67
2021/06/22 04:53:14;;;;;;;7.78;4.70;;;;;;;;;;5075919;28;20039;-63
2021/06/22 04:55:41;;;;;;;6.88;4.57;;;;;;;;;;5076802;28;20017;-63
2021/06/22 04:58:06;;;;;;;8.95;4.97;;;;;;;;;;5076614;28;20029;-62
2021/06/22 05:00:32;;;;;;;8.35;5.60;;;;;;;;;;5076856;28;20039;-62
2021/06/22 05:02:58;;;;;;;8.27;5.38;;;;;;;;;;5075721;28;20032;-63
2021/06/22 05:05:25;;;;;;;7.53;5.40;;;;;;;;;;5075036;28;20515;-62
2021/06/22 05:07:51;;;;;;;6.90;4.82;;;;;;;;;;5076152;28;20059;-62
2021/06/22 05:10:16;;;;;;;9.88;5.50;;;;;;;;;;5076839;28;20095;-64
2021/06/22 05:12:42;;;;;;;8.32;5.60;;;;;;;;;;5076892;28;20019;-63
2021/06/22 05:15:08;;;;;;;10.77;5.70;;;;;;;;;;5076617;28;20466;-64
2021/06/22 05:17:34;;;;;;;14.43;5.63;;;;;;;;;;5076629;28;20020;-64
2021/06/22 05:19:59;;;;;;;9.98;5.22;;;;;;;;;;5076506;28;20056;-64
2021/06/22 05:22:25;;;;;;;11.48;5.45;;;;;;;;;;5076406;28;20031;-64
2021/06/22 05:24:50;;;;;;;9.43;5.80;;;;;;;;;;5075993;28;20025;-64
2021/06/22 05:27:16;;;;;;;8.13;4.68;;;;;;;;;;5076151;28;20044;-64
2021/06/22 05:29:42;;;;;;;8.82;4.85;;;;;;;;;;5076686;28;20029;-64
2021/06/22 05:32:08;;;;;;;12.27;6.43;;;;;;;;;;5075797;28;20124;-64
2021/06/22 05:34:34;;;;;;;10.77;4.95;;;;;;;;;;5076343;28;20510;-64
2021/06/22 05:37:00;;;;;;;11.82;5.63;;;;;;;;;;5076226;28;20047;-63
2021/06/22 06:00:04;;;;;;;9.65;5.00;;;;;;;;;;5123812;27;20173;-67
2021/06/22 06:02:38;;;;;;;6.88;5.63;;;;;;;;;;5090550;28;20134;-67
2021/06/22 06:05:04;;;;;;;9.10;5.70;;;;;;;;;;5090445;28;20169;-67
2021/06/22 06:07:30;;;;;;;11.48;5.38;;;;;;;;;;5089069;28;20012;-67
2021/06/22 06:09:55;;;;;;;11.00;6.05;;;;;;;;;;5090328;28;20028;-67
2021/06/22 06:12:21;;;;;;;10.50;6.07;;;;;;;;;;5090360;28;20021;-68
2021/06/22 06:14:46;;;;;;;8.38;5.53;;;;;;;;;;5090175;28;20030;-67
2021/06/22 06:17:13;;;;;;;7.65;5.82;;;;;;;;;;5090256;28;20021;-67
2021/06/22 06:19:40;;;;;;;12.82;5.55;;;;;;;;;;5088957;28;20118;-67
2021/06/22 06:22:07;;;;;;;7.88;5.32;;;;;;;;;;5088891;28;20403;-67
2021/06/22 06:24:33;;;;;;;9.38;7.00;;;;;;;;;;5089960;28;20032;-67
2021/06/22 06:29:32;;;;;;;8.57;5.57;;;;;;;;;;5088489;28;20071;-67
2021/06/22 06:31:58;;;;;;;6.63;5.80;;;;;;;;;;5089984;28;20027;-67
2021/06/22 06:34:23;;;;;;;10.23;5.97;;;;;;;;;;5089921;28;20017;-67
2021/06/22 06:36:49;;;;;;;8.95;5.05;;;;;;;;;;5089973;28;20109;-67
2021/06/22 06:39:14;;;;;;;8.00;5.50;;;;;;;;;;5089842;28;20051;-67
2021/06/22 06:41:40;;;;;;;11.10;5.03;;;;;;;;;;5090063;28;20086;-67
2021/06/22 06:44:05;;;;;;;10.20;5.35;;;;;;;;;;5089900;28;20078;-67
2021/06/22 06:46:31;;;;;;;7.53;4.35;;;;;;;;;;5088300;28;20039;-67
2021/06/22 06:48:57;;;;;;;8.88;6.05;;;;;;;;;;5089661;28;20016;-67
2021/06/22 06:51:22;;;;;;;9.25;5.82;;;;;;;;;;5089731;28;20032;-67
2021/06/22 06:53:48;;;;;;;9.15;6.25;;;;;;;;;;5089689;28;20025;-67
2021/06/22 06:56:14;;;;;;;9.65;5.80;;;;;;;;;;5089874;28;20047;-67
2021/06/22 06:58:39;;;;;;;11.07;5.07;;;;;;;;;;5088957;28;20040;-67
2021/06/22 07:01:05;;;;;;;5.68;4.70;;;;;;;;;;5075206;28;20502;-67
2021/06/22 07:03:31;;;;;;;6.55;5.10;;;;;;;;;;5075755;28;20017;-67
2021/06/22 07:05:56;;;;;;;5.90;4.93;;;;;;;;;;5108411;28;20028;-67
2021/06/22 07:08:22;;;;;;;9.90;4.90;;;;;;;;;;5075578;28;20024;-67
2021/06/22 07:10:47;;;;;;;6.15;5.15;;;;;;;;;;5075669;28;20021;-68
2021/06/22 07:13:17;;;;;;;5.38;4.88;;;;;;;;;;5075722;28;20025;-67
2021/06/22 07:15:42;;;;;;;6.60;4.75;;;;;;;;;;5075547;28;20028;-67
2021/06/22 07:18:08;;;;;;;7.22;5.40;;;;;;;;;;5075366;28;20534;-68
2021/06/22 07:20:33;;;;;;;10.18;5.55;;;;;;;;;;5074042;28;20036;-67
2021/06/22 07:22:59;;;;;;;13.70;5.40;;;;;;;;;;5075332;28;20028;-67
2021/06/22 07:25:27;;;;;;;10.93;5.25;;;;;;;;;;5075415;28;20024;-67
2021/06/22 07:27:53;;;;;;;9.75;6.15;;;;;;;;;;5074138;28;20024;-67
2021/06/22 07:30:23;;;;;;;9.02;5.40;;;;;;;;;;5075302;28;20073;-67
2021/06/22 07:32:50;;;;;;;9.48;5.40;;;;;;;;;;5075352;28;20013;-67
2021/06/22 07:35:15;;;;;;;6.10;5.25;;;;;;;;;;5075216;28;20033;-67
2021/06/22 07:37:41;;;;;;;7.47;5.00;;;;;;;;;;5075780;28;20032;-67
2021/06/22 07:40:07;;;;;;;7.20;5.35;;;;;;;;;;5075457;28;20100;-68
2021/06/22 07:42:33;;;;;;;11.10;6.40;;;;;;;;;;5057537;28;20020;-69
2021/06/22 07:44:58;;;;;;;6.78;5.63;;;;;;;;;;5075437;28;20390;-69
2021/06/22 07:47:24;;;;;;;6.45;5.30;;;;;;;;;;5075068;28;20020;-70
2021/06/22 07:49:50;;;;;;;9.13;6.53;;;;;;;;;;5074849;28;20025;-70
2021/06/22 07:52:15;;;;;;;10.77;6.00;;;;;;;;;;5073499;28;20020;-70
2021/06/22 07:54:41;;;;;;;11.93;6.30;;;;;;;;;;5075204;28;20044;-70
2021/06/22 07:57:06;;;;;;;10.10;6.20;;;;;;;;;;5075203;28;20013;-70
2021/06/22 07:59:32;;;;;;;5.93;5.35;;;;;;;;;;5075188;28;20052;-70
2021/06/22 08:01:58;;;;;;;14.07;6.30;;;;;;;;;;5073689;28;20029;-70
2021/06/22 08:04:24;;;;;;;9.80;5.95;;;;;;;;;;5074966;28;20032;-70
2021/06/22 08:06:52;;;;;;;8.30;6.55;;;;;;;;;;5075087;28;20028;-70
2021/06/22 08:09:18;;;;;;;8.98;7.00;;;;;;;;;;5074913;28;20036;-70
2021/06/22 08:11:43;;;;;;;12.15;6.75;;;;;;;;;;5072670;28;20024;-71
2021/06/22 08:14:09;;;;;;;10.07;6.28;;;;;;;;;;5073474;28;20025;-71
2021/06/22 08:16:35;;;;;;;8.32;5.65;;;;;;;;;;5073139;28;20468;-71
2021/06/22 08:19:01;;;;;;;11.15;6.78;;;;;;;;;;5074388;28;20024;-71
2021/06/22 08:21:26;;;;;;;8.20;5.10;;;;;;;;;;5073243;28;20464;-71
2021/06/22 08:23:52;;;;;;;8.63;5.22;;;;;;;;;;5074572;28;20028;-71
2021/06/22 08:26:17;;;;;;;6.72;4.80;;;;;;;;;;5074594;28;20021;-70
2021/06/22 08:28:43;;;;;;;8.23;4.82;;;;;;;;;;5074570;28;20031;-70
2021/06/22 08:31:08;;;;;;;7.70;4.75;;;;;;;;;;5074306;28;20009;-69
2021/06/22 08:33:34;;;;;;;9.30;4.95;;;;;;;;;;5056238;28;20025;-69
2021/06/22 08:35:59;;;;;;;6.35;4.53;;;;;;;;;;5074324;28;20017;-69
2021/06/22 08:38:25;;;;;;;8.38;5.05;;;;;;;;;;5073927;28;20025;-69
2021/06/22 08:40:50;;;;;;;9.20;4.93;;;;;;;;;;5074047;28;20387;-70
2021/06/22 08:43:17;;;;;;;6.07;5.13;;;;;;;;;;5074059;28;20024;-70
2021/06/22 08:45:43;;;;;;;12.45;6.38;;;;;;;;;;5074098;28;20023;-70
2021/06/22 09:00:48;;;;;;;12.55;8.70;;;;;;;;;;5093367;27;20359;-63
2021/06/22 09:03:24;;;;;;;9.98;8.02;;;;;;;;;;5090693;28;20024;-63
2021/06/22 09:05:51;;;;;;;6.90;5.35;;;;;;;;;;5072369;28;20027;-63
2021/06/22 09:08:17;;;;;;;10.60;9.07;;;;;;;;;;5090435;28;20024;-63
2021/06/22 09:10:43;;;;;;;10.00;8.35;;;;;;;;;;5090339;28;20101;-63
2021/06/22 09:13:22;;;;;;;13.18;9.13;;;;;;;;;;5090464;28;20463;-63
2021/06/22 09:15:49;;;;;;;13.27;8.95;;;;;;;;;;5090202;28;20032;-62
2021/06/22 09:18:24;;;;;;;11.15;8.60;;;;;;;;;;5090225;28;20107;-62
2021/06/22 09:20:50;;;;;;;18.42;11.93;;;;;;;;;;5072022;28;20028;-63
2021/06/22 09:23:17;;;;;;;14.13;10.85;;;;;;;;;;5090083;28;20023;-63
2021/06/22 09:25:45;;;;;;;16.13;10.43;;;;;;;;;;5090021;28;20109;-63
2021/06/22 09:28:11;;;;;;;15.57;9.85;;;;;;;;;;5070925;28;20386;-63
2021/06/22 09:30:36;;;;;;;13.25;8.82;;;;;;;;;;5088154;28;20028;-63
2021/06/22 09:33:20;;;;;;;15.90;9.65;;;;;;;;;;5088794;28;20020;-63
2021/06/22 09:35:46;;;;;;;10.98;9.88;;;;;;;;;;5090159;28;20032;-63
2021/06/22 09:38:13;;;;;;;10.02;8.68;;;;;;;;;;5090024;28;20016;-62
2021/06/22 09:40:39;;;;;;;13.18;8.50;;;;;;;;;;5089873;28;20036;-63
2021/06/22 09:43:05;;;;;;;14.95;8.43;;;;;;;;;;5089755;28;20039;-63
2021/06/22 09:45:31;;;;;;;11.45;10.25;;;;;;;;;;5090006;28;20033;-63
2021/06/22 09:48:01;;;;;;;13.60;10.40;;;;;;;;;;5089557;28;20024;-62
2021/06/22 09:50:46;;;;;;;14.20;10.85;;;;;;;;;;5089634;28;20055;-62
2021/06/22 09:53:21;;;;;;;14.25;9.57;;;;;;;;;;5071344;28;20085;-63
2021/06/22 09:55:46;;;;;;;13.38;9.90;;;;;;;;;;5071612;28;20028;-63
2021/06/22 09:58:13;;;;;;;12.73;11.25;;;;;;;;;;5089353;28;20027;-63
2021/06/22 10:00:39;;;;;;;14.75;11.55;;;;;;;;;;5082026;28;20044;-63
2021/06/22 10:03:05;;;;;;;14.57;10.63;;;;;;;;;;5074773;28;20051;-62
2021/06/22 10:05:30;;;;;;;17.50;11.63;;;;;;;;;;5074666;28;20395;-62
2021/06/22 10:08:02;;;;;;;15.50;11.27;;;;;;;;;;5075740;28;20025;-62
2021/06/22 10:10:37;;;;;;;14.55;10.35;;;;;;;;;;5075787;28;20020;-63
2021/06/22 10:13:03;;;;;;;12.23;9.13;;;;;;;;;;5074249;28;20035;-63
2021/06/22 10:15:28;;;;;;;15.38;11.07;;;;;;;;;;5075434;28;20099;-63
2021/06/22 10:17:54;;;;;;;14.15;10.85;;;;;;;;;;5075222;28;20021;-62
2021/06/22 10:20:20;;;;;;;14.38;10.95;;;;;;;;;;5075458;28;20017;-62
2021/06/22 10:22:47;;;;;;;20.23;14.15;;;;;;;;;;5075632;28;20424;-62
2021/06/22 10:25:14;;;;;;;13.85;11.27;;;;;;;;;;5074258;28;20027;-62
2021/06/22 10:27:40;;;;;;;16.98;10.85;;;;;;;;;;5075414;28;20040;-62
2021/06/22 10:30:06;;;;;;;11.60;9.82;;;;;;;;;;5075292;28;20020;-62
2021/06/22 10:32:32;;;;;;;11.05;9.80;;;;;;;;;;5075464;28;20507;-62
2021/06/22 10:35:02;;;;;;;13.88;9.35;;;;;;;;;;5075444;28;20019;-63
2021/06/22 10:37:28;;;;;;;;;;;;;;;;;;5074464;28;20024;-62
2021/06/22 10:40:13;;;;;;;13.40;10.37;;;;;;;;;;5075351;28;19911;-62
2021/06/22 10:42:40;;;;;;;10.98;9.88;;;;;;;;;;5074838;28;20769;-63
2021/06/22 10:45:05;;;;;;;12.48;9.63;;;;;;;;;;5075387;28;20021;-63
2021/06/22 10:47:32;;;;;;;12.60;10.30;;;;;;;;;;5075561;28;20051;-64
2021/06/22 10:50:01;;;;;;;12.07;10.77;;;;;;;;;;5075169;28;20379;-63
2021/06/22 10:52:42;;;;;;;10.82;9.73;;;;;;;;;;5074472;28;20028;-64
2021/06/22 10:55:21;;;;;;;11.50;9.80;;;;;;;;;;5075356;28;20035;-64
2021/06/22 11:00:30;;;;;;;12.90;9.60;;;;;;;;;;5074998;28;20048;-63
2021/06/22 11:02:59;;;;;;;11.43;9.35;;;;;;;;;;5074806;28;20040;-63
2021/06/22 11:05:25;;;;;;;14.35;10.43;;;;;;;;;;5057069;28;20036;-64
2021/06/22 11:08:11;;;;;;;11.93;10.07;;;;;;;;;;5074673;28;20013;-63
2021/06/22 11:10:40;;;;;;;10.90;9.50;;;;;;;;;;5074657;28;20454;-63
2021/06/22 11:13:06;;;;;;;10.77;9.45;;;;;;;;;;5073655;28;20122;-63
2021/06/22 11:15:45;;;;;;;15.45;10.77;;;;;;;;;;5074889;28;20033;-63
2021/06/22 11:18:15;;;;;;;9.63;8.50;;;;;;;;;;5074653;28;20025;-64
2021/06/22 11:20:41;;;;;;;11.70;8.77;;;;;;;;;;5074452;28;20104;-63
2021/06/22 11:23:08;;;;;;;10.27;8.13;;;;;;;;;;5074494;28;20481;-63
2021/06/22 11:25:49;;;;;;;15.90;9.57;;;;;;;;;;5074371;28;20024;-63
2021/06/22 11:28:15;;;;;;;13.90;9.85;;;;;;;;;;5074164;28;20028;-63
2021/06/22 11:31:00;;;;;;;11.27;10.05;;;;;;;;;;5072878;28;20020;-63
2021/06/22 11:33:29;;;;;;;9.25;7.55;;;;;;;;;;5074206;28;20131;-63
2021/06/22 11:36:13;;;;;;;8.43;7.63;;;;;;;;;;5074303;28;20048;-63
2021/06/22 11:38:38;;;;;;;15.10;8.30;;;;;;;;;;5072705;28;20464;-63
2021/06/22 11:41:14;;;;;;;9.52;8.25;;;;;;;;;;5074050;28;20059;-63
2021/06/22 11:44:12;;;;;;;13.35;9.00;;;;;;;;;;5073854;28;20091;-63
2021/06/22 11:46:40;;;;;;;12.18;8.20;;;;;;;;;;5039556;28;20098;-63
2021/06/22 11:49:05;;;;;;;18.23;9.00;;;;;;;;;;5073516;28;20447;-63
2021/06/22 11:51:46;;;;;;;13.25;10.02;;;;;;;;;;5072461;28;20120;-63
2021/06/22 11:54:16;;;;;;;15.15;9.25;;;;;;;;;;5073675;28;20383;-63
2021/06/22 11:56:45;;;;;;;14.60;10.13;;;;;;;;;;5073937;28;20020;-63
2021/06/22 11:59:10;;;;;;;11.57;9.10;;;;;;;;;;5073494;28;20033;-63
2021/06/22 12:01:42;;;;;;;10.13;8.00;;;;;;;;;;5073733;28;20040;-63
2021/06/22 12:04:07;;;;;;;10.00;8.38;;;;;;;;;;5072508;28;20032;-63
2021/06/22 12:06:33;;;;;;;10.77;8.30;;;;;;;;;;5073652;28;20024;-63
2021/06/22 12:08:59;;;;;;;10.02;8.40;;;;;;;;;;5073607;28;20081;-63
2021/06/22 12:11:31;;;;;;;13.13;8.93;;;;;;;;;;5072110;28;20494;-63
2021/06/22 12:13:57;;;;;;;9.57;7.75;;;;;;;;;;5073375;28;20028;-63
2021/06/22 12:16:30;;;;;;;8.75;7.82;;;;;;;;;;5073594;28;20028;-63
2021/06/22 12:18:59;;;;;;;10.52;9.05;;;;;;;;;;5073325;28;20036;-62
2021/06/22 12:21:26;;;;;;;13.10;9.20;;;;;;;;;;5073209;28;20021;-63
2021/06/22 12:23:58;;;;;;;11.63;9.00;;;;;;;;;;5073053;28;20021;-63
2021/06/22 12:26:24;;;;;;;9.73;8.70;;;;;;;;;;5073545;28;20498;-63
2021/06/22 12:28:49;;;;;;;12.27;8.60;;;;;;;;;;5072190;28;20021;-63
2021/06/22 12:31:15;;;;;;;15.73;9.57;;;;;;;;;;5073357;28;20024;-63
2021/06/22 12:33:42;;;;;;;11.60;9.48;;;;;;;;;;5072012;28;20024;-63
2021/06/22 12:36:09;;;;;;;11.27;8.52;;;;;;;;;;5073486;28;20020;-63
2021/06/22 12:38:35;;;;;;;10.90;9.32;;;;;;;;;;5071951;28;20017;-63
2021/06/22 12:41:01;;;;;;;16.13;9.00;;;;;;;;;;5073261;28;20376;-63
2021/06/22 12:43:46;;;;;;;11.05;8.27;;;;;;;;;;5071755;28;20029;-63
2021/06/22 12:46:13;;;;;;;10.65;8.23;;;;;;;;;;5073039;28;20387;-63
2021/06/22 12:48:39;;;;;;;10.30;7.78;;;;;;;;;;5073072;28;20016;-63
2021/06/22 12:51:06;;;;;;;12.63;8.60;;;;;;;;;;5071919;28;20032;-63
2021/06/22 12:53:32;;;;;;;12.65;8.18;;;;;;;;;;5072738;28;20016;-63
2021/06/22 12:56:10;;;;;;;11.70;9.25;;;;;;;;;;5073239;28;20025;-63
2021/06/22 12:58:45;;;;;;;11.02;8.48;;;;;;;;;;5072703;28;20037;-63
2021/06/22 13:01:29;;;;;;;10.48;9.05;;;;;;;;;;5073353;28;20060;-63
2021/06/22 13:03:55;;;;;;;10.63;7.70;;;;;;;;;;5072993;28;20093;-63
2021/06/22 13:06:25;;;;;;;9.02;8.13;;;;;;;;;;5071545;28;20467;-63
2021/06/22 13:08:55;;;;;;;8.00;7.22;;;;;;;;;;5072753;28;20036;-63
2021/06/22 13:11:24;;;;;;;9.13;8.23;;;;;;;;;;5072904;28;20040;-63
2021/06/22 13:13:50;;;;;;;10.38;8.75;;;;;;;;;;5072879;28;20032;-62
2021/06/22 13:16:16;;;;;;;11.43;8.30;;;;;;;;;;5072702;28;20383;-63
2021/06/22 13:18:56;;;;;;;9.60;7.63;;;;;;;;;;5072838;28;20039;-63
2021/06/22 13:21:21;;;;;;;10.80;7.90;;;;;;;;;;5072818;28;20115;-64
2021/06/22 13:23:47;;;;;;;8.63;7.82;;;;;;;;;;5072828;28;20434;-64
2021/06/22 13:26:13;;;;;;;9.05;7.60;;;;;;;;;;5072980;28;20383;-64
2021/06/22 13:28:38;;;;;;;11.10;8.32;;;;;;;;;;5072803;28;20020;-63
2021/06/22 13:31:11;;;;;;;9.27;8.13;;;;;;;;;;5072607;28;20037;-64
2021/06/22 13:33:37;;;;;;;12.52;7.15;;;;;;;;;;5072762;28;20024;-64
2021/06/22 13:36:02;;;;;;;8.73;7.75;;;;;;;;;;5074639;28;20013;-64
2021/06/22 13:38:29;;;;;;;12.10;7.72;;;;;;;;;;5075937;28;20044;-63
2021/06/22 13:40:55;;;;;;;8.60;7.22;;;;;;;;;;5076547;28;20045;-63
2021/06/22 13:43:22;;;;;;;7.72;7.00;;;;;;;;;;5076781;28;20365;-63
2021/06/22 13:45:49;;;;;;;11.82;6.85;;;;;;;;;;5075098;28;20027;-64
2021/06/22 13:48:19;;;;;;;10.07;7.38;;;;;;;;;;5076341;28;20032;-63
2021/06/22 13:50:44;;;;;;;9.73;6.72;;;;;;;;;;5076175;28;20383;-62
2021/06/22 13:53:17;;;;;;;6.82;6.22;;;;;;;;;;5076170;28;20107;-63
2021/06/22 13:55:42;;;;;;;8.55;7.22;;;;;;;;;;5063994;28;20494;-63
2021/06/22 13:58:13;;;;;;;8.90;7.00;;;;;;;;;;5062905;28;20016;-63
2021/06/22 14:00:41;;;;;;;7.28;6.57;;;;;;;;;;5070806;28;20047;-63
2021/06/22 14:03:08;;;;;;;6.93;5.97;;;;;;;;;;5076193;28;20024;-61
2021/06/22 14:05:34;;;;;;;8.05;6.80;;;;;;;;;;5075113;28;20024;-60
2021/06/22 14:08:00;;;;;;;8.63;6.43;;;;;;;;;;5068814;28;20009;-60
2021/06/22 14:10:27;;;;;;;9.43;6.40;;;;;;;;;;5056375;28;20471;-60
2021/06/22 14:12:52;;;;;;;8.68;5.93;;;;;;;;;;5055622;28;20029;-60
2021/06/22 14:15:18;;;;;;;7.40;6.15;;;;;;;;;;5058248;28;20032;-65
2021/06/22 14:17:44;;;;;;;7.20;5.57;;;;;;;;;;5055726;28;20013;-60
2021/06/22 14:20:10;;;;;;;5.93;5.45;;;;;;;;;;5056922;28;20491;-60
2021/06/22 14:22:36;;;;;;;7.00;6.30;;;;;;;;;;5073046;28;20028;-60
2021/06/22 14:25:02;;;;;;;6.88;6.18;;;;;;;;;;5074401;28;20111;-60
2021/06/22 14:27:28;;;;;;;7.93;5.40;;;;;;;;;;5055645;28;20063;-60
2021/06/22 14:29:54;;;;;;;9.30;5.78;;;;;;;;;;5055765;28;20395;-60
2021/06/22 14:32:20;;;;;;;7.30;5.93;;;;;;;;;;5055253;28;20108;-60
2021/06/22 14:34:45;;;;;;;6.70;5.45;;;;;;;;;;5060519;28;20120;-60
2021/06/22 14:37:10;;;;;;;6.22;5.63;;;;;;;;;;5069321;28;20024;-60
2021/06/22 14:39:36;;;;;;;9.57;5.82;;;;;;;;;;5075770;28;20032;-59
2021/06/22 14:42:02;;;;;;;6.88;5.93;;;;;;;;;;5073197;28;20078;-60
2021/06/22 14:44:27;;;;;;;6.40;5.78;;;;;;;;;;5075089;28;20025;-60
2021/06/22 14:46:53;;;;;;;8.45;6.05;;;;;;;;;;5074629;28;20016;-60
2021/06/22 14:49:18;;;;;;;14.35;6.28;;;;;;;;;;5075325;28;20033;-60
2021/06/22 14:51:44;;;;;;;7.03;5.60;;;;;;;;;;5074960;28;20383;-60
2021/06/22 14:54:09;;;;;;;7.20;6.20;;;;;;;;;;5074993;28;20103;-60
2021/06/22 14:56:37;;;;;;;7.28;6.43;;;;;;;;;;5075104;28;20460;-61
2021/06/22 14:59:03;;;;;;;8.95;6.15;;;;;;;;;;5074670;28;20139;-59
2021/06/22 15:01:29;;;;;;;6.95;6.35;;;;;;;;;;5075348;28;20387;-60
2021/06/22 15:03:54;;;;;;;9.50;6.63;;;;;;;;;;5074908;28;20067;-60
2021/06/22 15:06:20;;;;;;;6.50;5.22;;;;;;;;;;5074791;28;20479;-61
2021/06/22 15:08:46;;;;;;;10.27;6.22;;;;;;;;;;5074657;28;20070;-60
2021/06/22 15:11:13;;;;;;;6.45;5.43;;;;;;;;;;5073492;28;20036;-60
2021/06/22 15:13:39;;;;;;;9.10;6.22;;;;;;;;;;5074311;28;20016;-60
2021/06/22 15:16:05;;;;;;;6.68;6.07;;;;;;;;;;5074613;28;20108;-65
2021/06/22 15:18:31;;;;;;;10.88;6.43;;;;;;;;;;5074743;28;20042;-65
2021/06/22 15:20:57;;;;;;;11.45;6.32;;;;;;;;;;5074207;28;20031;-65